sensor_id;sensor_type;location;lat;lon;timestamp;P1;durP1;ratioP1;P2;durP2;ratioP2
20084;SDS011;10202;48.474;9.138;2022-12-29T00:01:00;5.65;;;1.60;;
20084;SDS011;10202;48.474;9.138;2022-12-29T00:03:28;2.53;;;1.10;;
20084;SDS011;10202;48.474;9.138;2022-12-29T00:05:59;1.83;;;1.20;;
20084;SDS011;10202;48.474;9.138;2022-12-29T00:08:25;2.70;;;1.30;;
20084;SDS011;10202;48.474;9.138;2022-12-29T00:11:05;2.42;;;1.48;;
20084;SDS011;10202;48.474;9.138;2022-12-29T00:13:35;2.50;;;1.60;;
20084;SDS011;10202;48.474;9.138;2022-12-29T00:16:20;3.15;;;1.50;;
20084;SDS011;10202;48.474;9.138;2022-12-29T00:18:48;4.63;;;1.70;;
20084;SDS011;10202;48.474;9.138;2022-12-29T00:21:15;1.90;;;1.52;;
20084;SDS011;10202;48.474;9.138;2022-12-29T00:24:02;2.58;;;1.58;;
20084;SDS011;10202;48.474;9.138;2022-12-29T00:26:49;3.90;;;1.90;;
20084;SDS011;10202;48.474;9.138;2022-12-29T00:29:46;3.25;;;1.85;;
20084;SDS011;10202;48.474;9.138;2022-12-29T00:32:31;1.58;;;1.38;;
20084;SDS011;10202;48.474;9.138;2022-12-29T00:35:20;5.15;;;3.00;;
20084;SDS011;10202;48.474;9.138;2022-12-29T00:37:55;5.35;;;3.08;;
20084;SDS011;10202;48.474;9.138;2022-12-29T00:40:42;12.82;;;3.47;;
20084;SDS011;10202;48.474;9.138;2022-12-29T00:43:29;6.57;;;3.83;;
20084;SDS011;10202;48.474;9.138;2022-12-29T00:46:18;7.43;;;3.30;;
20084;SDS011;10202;48.474;9.138;2022-12-29T00:48:43;6.40;;;3.55;;
20084;SDS011;10202;48.474;9.138;2022-12-29T00:51:32;7.57;;;3.50;;
20084;SDS011;10202;48.474;9.138;2022-12-29T00:54:02;8.38;;;3.85;;
20084;SDS011;10202;48.474;9.138;2022-12-29T00:56:28;4.63;;;3.05;;
20084;SDS011;10202;48.474;9.138;2022-12-29T00:58:56;7.60;;;3.25;;
20084;SDS011;10202;48.474;9.138;2022-12-29T01:01:28;5.82;;;3.15;;
20084;SDS011;10202;48.474;9.138;2022-12-29T01:03:56;3.90;;;2.83;;
20084;SDS011;10202;48.474;9.138;2022-12-29T01:06:24;6.43;;;2.90;;
20084;SDS011;10202;48.474;9.138;2022-12-29T01:08:54;3.25;;;2.30;;
20084;SDS011;10202;48.474;9.138;2022-12-29T01:11:41;4.32;;;2.38;;
20084;SDS011;10202;48.474;9.138;2022-12-29T01:14:09;4.50;;;2.55;;
20084;SDS011;10202;48.474;9.138;2022-12-29T01:16:39;5.15;;;2.28;;
20084;SDS011;10202;48.474;9.138;2022-12-29T01:19:05;3.55;;;2.53;;
20084;SDS011;10202;48.474;9.138;2022-12-29T01:21:33;4.68;;;2.20;;
20084;SDS011;10202;48.474;9.138;2022-12-29T01:23:58;4.28;;;2.25;;
20084;SDS011;10202;48.474;9.138;2022-12-29T01:26:24;6.63;;;2.20;;
20084;SDS011;10202;48.474;9.138;2022-12-29T01:28:52;2.92;;;2.00;;
20084;SDS011;10202;48.474;9.138;2022-12-29T01:31:17;3.35;;;2.03;;
20084;SDS011;10202;48.474;9.138;2022-12-29T01:33:48;4.32;;;2.55;;
20084;SDS011;10202;48.474;9.138;2022-12-29T01:36:15;5.57;;;2.30;;
20084;SDS011;10202;48.474;9.138;2022-12-29T01:38:47;3.22;;;2.15;;
20084;SDS011;10202;48.474;9.138;2022-12-29T01:41:16;4.65;;;2.38;;
20084;SDS011;10202;48.474;9.138;2022-12-29T01:46:33;3.97;;;2.10;;
20084;SDS011;10202;48.474;9.138;2022-12-29T01:51:33;3.47;;;1.80;;
20084;SDS011;10202;48.474;9.138;2022-12-29T01:54:08;4.85;;;1.98;;
20084;SDS011;10202;48.474;9.138;2022-12-29T01:57:00;2.45;;;1.50;;
20084;SDS011;10202;48.474;9.138;2022-12-29T01:59:34;3.15;;;1.40;;
20084;SDS011;10202;48.474;9.138;2022-12-29T02:02:06;3.55;;;1.55;;
20084;SDS011;10202;48.474;9.138;2022-12-29T02:04:32;2.00;;;1.40;;
20084;SDS011;10202;48.474;9.138;2022-12-29T02:07:18;2.97;;;1.10;;
20084;SDS011;10202;48.474;9.138;2022-12-29T02:09:47;1.95;;;1.30;;
20084;SDS011;10202;48.474;9.138;2022-12-29T02:12:19;2.30;;;1.05;;
20084;SDS011;10202;48.474;9.138;2022-12-29T02:14:49;3.65;;;1.17;;
20084;SDS011;10202;48.474;9.138;2022-12-29T02:20:37;4.35;;;1.08;;
20084;SDS011;10202;48.474;9.138;2022-12-29T02:32:44;44.35;;;15.45;;
20084;SDS011;10202;48.474;9.138;2022-12-29T02:41:07;2.40;;;1.42;;
20084;SDS011;10202;48.474;9.138;2022-12-29T02:49:38;3.05;;;1.20;;
20084;SDS011;10202;48.474;9.138;2022-12-29T02:52:13;1.75;;;1.00;;
20084;SDS011;10202;48.474;9.138;2022-12-29T02:54:47;3.03;;;1.10;;
20084;SDS011;10202;48.474;9.138;2022-12-29T02:59:48;1.95;;;0.90;;
20084;SDS011;10202;48.474;9.138;2022-12-29T03:08:39;2.40;;;1.00;;
20084;SDS011;10202;48.474;9.138;2022-12-29T03:11:29;1.42;;;1.00;;
20084;SDS011;10202;48.474;9.138;2022-12-29T03:14:27;1.10;;;1.00;;
20084;SDS011;10202;48.474;9.138;2022-12-29T03:20:14;1.77;;;0.90;;
20084;SDS011;10202;48.474;9.138;2022-12-29T03:22:51;2.40;;;0.90;;
20084;SDS011;10202;48.474;9.138;2022-12-29T03:25:24;1.35;;;1.00;;
20084;SDS011;10202;48.474;9.138;2022-12-29T03:28:03;1.85;;;1.00;;
20084;SDS011;10202;48.474;9.138;2022-12-29T03:30:39;1.02;;;0.90;;
20084;SDS011;10202;48.474;9.138;2022-12-29T03:33:11;1.52;;;1.02;;
20084;SDS011;10202;48.474;9.138;2022-12-29T03:35:44;4.57;;;0.90;;
20084;SDS011;10202;48.474;9.138;2022-12-29T03:38:24;2.38;;;0.98;;
20084;SDS011;10202;48.474;9.138;2022-12-29T03:41:01;1.85;;;1.20;;
20084;SDS011;10202;48.474;9.138;2022-12-29T03:43:33;4.03;;;1.10;;
20084;SDS011;10202;48.474;9.138;2022-12-29T03:46:00;1.70;;;1.25;;
20084;SDS011;10202;48.474;9.138;2022-12-29T03:48:31;1.90;;;1.10;;
20084;SDS011;10202;48.474;9.138;2022-12-29T03:51:02;2.58;;;1.13;;
20084;SDS011;10202;48.474;9.138;2022-12-29T03:53:38;2.22;;;1.10;;
20084;SDS011;10202;48.474;9.138;2022-12-29T03:56:04;3.40;;;1.25;;
20084;SDS011;10202;48.474;9.138;2022-12-29T03:58:32;4.47;;;1.30;;
20084;SDS011;10202;48.474;9.138;2022-12-29T04:01:26;2.03;;;1.27;;
20084;SDS011;10202;48.474;9.138;2022-12-29T04:03:52;3.40;;;1.33;;
20084;SDS011;10202;48.474;9.138;2022-12-29T04:06:17;1.88;;;1.10;;
20084;SDS011;10202;48.474;9.138;2022-12-29T04:08:48;2.58;;;1.05;;
20084;SDS011;10202;48.474;9.138;2022-12-29T04:11:13;7.95;;;1.20;;
20084;SDS011;10202;48.474;9.138;2022-12-29T04:13:40;4.15;;;1.40;;
20084;SDS011;10202;48.474;9.138;2022-12-29T04:16:14;5.15;;;1.30;;
20084;SDS011;10202;48.474;9.138;2022-12-29T04:18:42;1.90;;;1.02;;
20084;SDS011;10202;48.474;9.138;2022-12-29T04:21:08;1.95;;;1.00;;
20084;SDS011;10202;48.474;9.138;2022-12-29T04:23:39;3.70;;;1.25;;
20084;SDS011;10202;48.474;9.138;2022-12-29T04:26:07;1.90;;;1.05;;
20084;SDS011;10202;48.474;9.138;2022-12-29T04:28:49;1.75;;;0.95;;
20084;SDS011;10202;48.474;9.138;2022-12-29T04:31:25;1.95;;;1.10;;
20084;SDS011;10202;48.474;9.138;2022-12-29T04:33:51;4.53;;;1.20;;
20084;SDS011;10202;48.474;9.138;2022-12-29T04:36:19;3.58;;;1.30;;
20084;SDS011;10202;48.474;9.138;2022-12-29T04:38:45;4.28;;;1.10;;
20084;SDS011;10202;48.474;9.138;2022-12-29T04:41:12;2.67;;;1.20;;
20084;SDS011;10202;48.474;9.138;2022-12-29T04:43:40;3.05;;;1.35;;
20084;SDS011;10202;48.474;9.138;2022-12-29T04:46:14;2.55;;;1.38;;
20084;SDS011;10202;48.474;9.138;2022-12-29T04:48:58;1.95;;;1.25;;
20084;SDS011;10202;48.474;9.138;2022-12-29T04:51:46;2.28;;;1.40;;
20084;SDS011;10202;48.474;9.138;2022-12-29T04:54:17;4.03;;;1.30;;
20084;SDS011;10202;48.474;9.138;2022-12-29T04:56:52;1.30;;;1.20;;
20084;SDS011;10202;48.474;9.138;2022-12-29T04:59:18;2.40;;;1.23;;
20084;SDS011;10202;48.474;9.138;2022-12-29T05:01:47;1.63;;;1.10;;
20084;SDS011;10202;48.474;9.138;2022-12-29T05:04:15;2.35;;;1.20;;
20084;SDS011;10202;48.474;9.138;2022-12-29T05:06:43;3.58;;;1.50;;
20084;SDS011;10202;48.474;9.138;2022-12-29T05:09:09;2.22;;;1.30;;
20084;SDS011;10202;48.474;9.138;2022-12-29T05:11:40;2.45;;;1.40;;
20084;SDS011;10202;48.474;9.138;2022-12-29T05:14:10;4.72;;;1.00;;
20084;SDS011;10202;48.474;9.138;2022-12-29T05:16:39;3.22;;;1.50;;
20084;SDS011;10202;48.474;9.138;2022-12-29T05:19:10;3.38;;;1.30;;
20084;SDS011;10202;48.474;9.138;2022-12-29T05:21:35;6.28;;;1.60;;
20084;SDS011;10202;48.474;9.138;2022-12-29T05:24:03;1.88;;;1.20;;
20084;SDS011;10202;48.474;9.138;2022-12-29T05:26:32;2.90;;;1.27;;
20084;SDS011;10202;48.474;9.138;2022-12-29T05:29:08;5.15;;;1.42;;
20084;SDS011;10202;48.474;9.138;2022-12-29T05:31:34;6.25;;;1.48;;
20084;SDS011;10202;48.474;9.138;2022-12-29T05:34:06;5.63;;;1.30;;
20084;SDS011;10202;48.474;9.138;2022-12-29T05:36:34;4.93;;;1.35;;
20084;SDS011;10202;48.474;9.138;2022-12-29T05:39:02;2.45;;;1.30;;
20084;SDS011;10202;48.474;9.138;2022-12-29T05:41:34;3.20;;;1.10;;
20084;SDS011;10202;48.474;9.138;2022-12-29T05:44:14;1.42;;;1.10;;
20084;SDS011;10202;48.474;9.138;2022-12-29T05:47:00;3.53;;;1.50;;
20084;SDS011;10202;48.474;9.138;2022-12-29T05:49:54;4.85;;;1.15;;
20084;SDS011;10202;48.474;9.138;2022-12-29T05:52:39;4.53;;;1.50;;
20084;SDS011;10202;48.474;9.138;2022-12-29T05:55:10;3.45;;;1.58;;
20084;SDS011;10202;48.474;9.138;2022-12-29T05:57:40;4.07;;;1.27;;
20084;SDS011;10202;48.474;9.138;2022-12-29T06:00:09;5.13;;;1.27;;
20084;SDS011;10202;48.474;9.138;2022-12-29T06:02:41;3.22;;;1.50;;
20084;SDS011;10202;48.474;9.138;2022-12-29T06:05:09;6.28;;;1.33;;
20084;SDS011;10202;48.474;9.138;2022-12-29T06:07:37;3.05;;;1.10;;
20084;SDS011;10202;48.474;9.138;2022-12-29T06:10:04;2.63;;;1.23;;
20084;SDS011;10202;48.474;9.138;2022-12-29T06:12:41;2.22;;;1.00;;
20084;SDS011;10202;48.474;9.138;2022-12-29T06:15:06;2.75;;;1.15;;
20084;SDS011;10202;48.474;9.138;2022-12-29T06:17:33;1.80;;;1.30;;
20084;SDS011;10202;48.474;9.138;2022-12-29T06:20:01;1.45;;;1.20;;
20084;SDS011;10202;48.474;9.138;2022-12-29T06:22:30;2.67;;;1.30;;
20084;SDS011;10202;48.474;9.138;2022-12-29T06:24:55;2.17;;;1.20;;
20084;SDS011;10202;48.474;9.138;2022-12-29T06:27:21;3.65;;;1.10;;
20084;SDS011;10202;48.474;9.138;2022-12-29T06:29:50;2.13;;;1.15;;
20084;SDS011;10202;48.474;9.138;2022-12-29T06:32:15;1.10;;;1.00;;
20084;SDS011;10202;48.474;9.138;2022-12-29T06:34:47;1.58;;;1.10;;
20084;SDS011;10202;48.474;9.138;2022-12-29T06:37:13;1.65;;;1.10;;
20084;SDS011;10202;48.474;9.138;2022-12-29T06:39:42;2.70;;;1.00;;
20084;SDS011;10202;48.474;9.138;2022-12-29T06:42:10;1.30;;;0.90;;
20084;SDS011;10202;48.474;9.138;2022-12-29T06:45:11;1.65;;;1.10;;
20084;SDS011;10202;48.474;9.138;2022-12-29T06:47:39;3.90;;;1.90;;
20084;SDS011;10202;48.474;9.138;2022-12-29T06:50:04;4.10;;;2.05;;
20084;SDS011;10202;48.474;9.138;2022-12-29T06:52:35;1.50;;;1.00;;
20084;SDS011;10202;48.474;9.138;2022-12-29T06:55:01;2.83;;;1.40;;
20084;SDS011;10202;48.474;9.138;2022-12-29T06:57:29;1.65;;;1.20;;
20084;SDS011;10202;48.474;9.138;2022-12-29T06:59:58;1.40;;;1.13;;
20084;SDS011;10202;48.474;9.138;2022-12-29T07:02:26;2.55;;;1.48;;
20084;SDS011;10202;48.474;9.138;2022-12-29T07:04:53;1.83;;;1.30;;
20084;SDS011;10202;48.474;9.138;2022-12-29T07:07:24;1.55;;;1.25;;
20084;SDS011;10202;48.474;9.138;2022-12-29T07:09:54;1.63;;;1.10;;
20084;SDS011;10202;48.474;9.138;2022-12-29T07:12:21;1.67;;;1.20;;
20084;SDS011;10202;48.474;9.138;2022-12-29T07:14:49;6.18;;;1.30;;
20084;SDS011;10202;48.474;9.138;2022-12-29T07:17:15;2.25;;;1.10;;
20084;SDS011;10202;48.474;9.138;2022-12-29T07:19:43;1.48;;;1.08;;
20084;SDS011;10202;48.474;9.138;2022-12-29T07:22:09;5.35;;;1.13;;
20084;SDS011;10202;48.474;9.138;2022-12-29T07:24:34;4.65;;;1.00;;
20084;SDS011;10202;48.474;9.138;2022-12-29T07:27:00;1.40;;;1.00;;
20084;SDS011;10202;48.474;9.138;2022-12-29T07:29:28;2.08;;;0.90;;
20084;SDS011;10202;48.474;9.138;2022-12-29T07:31:56;1.60;;;1.10;;
20084;SDS011;10202;48.474;9.138;2022-12-29T07:34:29;1.60;;;0.85;;
20084;SDS011;10202;48.474;9.138;2022-12-29T07:36:59;1.98;;;1.08;;
20084;SDS011;10202;48.474;9.138;2022-12-29T07:39:24;2.17;;;0.70;;
20084;SDS011;10202;48.474;9.138;2022-12-29T07:41:55;2.75;;;1.40;;
20084;SDS011;10202;48.474;9.138;2022-12-29T07:44:25;2.65;;;1.00;;
20084;SDS011;10202;48.474;9.138;2022-12-29T07:47:15;2.45;;;1.20;;
20084;SDS011;10202;48.474;9.138;2022-12-29T07:49:40;3.10;;;1.20;;
20084;SDS011;10202;48.474;9.138;2022-12-29T07:52:11;1.80;;;0.98;;
20084;SDS011;10202;48.474;9.138;2022-12-29T07:54:36;0.93;;;0.88;;
20084;SDS011;10202;48.474;9.138;2022-12-29T07:57:04;2.60;;;1.00;;
20084;SDS011;10202;48.474;9.138;2022-12-29T07:59:37;3.78;;;1.50;;
20084;SDS011;10202;48.474;9.138;2022-12-29T08:02:05;4.60;;;1.08;;
20084;SDS011;10202;48.474;9.138;2022-12-29T08:04:31;2.97;;;1.00;;
20084;SDS011;10202;48.474;9.138;2022-12-29T08:06:56;1.48;;;1.10;;
20084;SDS011;10202;48.474;9.138;2022-12-29T08:09:27;6.18;;;1.20;;
20084;SDS011;10202;48.474;9.138;2022-12-29T08:11:53;1.98;;;1.10;;
20084;SDS011;10202;48.474;9.138;2022-12-29T08:14:21;3.17;;;1.27;;
20084;SDS011;10202;48.474;9.138;2022-12-29T08:16:51;2.95;;;1.17;;
20084;SDS011;10202;48.474;9.138;2022-12-29T08:19:22;1.75;;;1.23;;
20084;SDS011;10202;48.474;9.138;2022-12-29T08:21:50;3.22;;;1.30;;
20084;SDS011;10202;48.474;9.138;2022-12-29T08:24:16;0.80;;;0.80;;
20084;SDS011;10202;48.474;9.138;2022-12-29T08:26:42;1.88;;;1.20;;
20084;SDS011;10202;48.474;9.138;2022-12-29T08:29:07;2.33;;;1.10;;
20084;SDS011;10202;48.474;9.138;2022-12-29T08:31:38;3.83;;;1.20;;
20084;SDS011;10202;48.474;9.138;2022-12-29T08:34:08;4.35;;;1.60;;
20084;SDS011;10202;48.474;9.138;2022-12-29T08:36:38;1.77;;;1.20;;
20084;SDS011;10202;48.474;9.138;2022-12-29T08:39:09;3.38;;;1.52;;
20084;SDS011;10202;48.474;9.138;2022-12-29T08:41:34;2.10;;;1.35;;
20084;SDS011;10202;48.474;9.138;2022-12-29T08:44:05;2.25;;;1.27;;
20084;SDS011;10202;48.474;9.138;2022-12-29T08:46:33;1.95;;;1.00;;
20084;SDS011;10202;48.474;9.138;2022-12-29T08:48:59;4.00;;;1.30;;
20084;SDS011;10202;48.474;9.138;2022-12-29T08:51:25;3.28;;;1.25;;
20084;SDS011;10202;48.474;9.138;2022-12-29T08:53:53;4.90;;;1.73;;
20084;SDS011;10202;48.474;9.138;2022-12-29T08:56:22;1.98;;;1.42;;
20084;SDS011;10202;48.474;9.138;2022-12-29T08:58:55;3.50;;;1.58;;
20084;SDS011;10202;48.474;9.138;2022-12-29T09:01:21;5.78;;;1.60;;
20084;SDS011;10202;48.474;9.138;2022-12-29T09:03:50;8.13;;;1.33;;
20084;SDS011;10202;48.474;9.138;2022-12-29T09:06:18;2.67;;;1.40;;
20084;SDS011;10202;48.474;9.138;2022-12-29T09:08:46;2.03;;;1.20;;
20084;SDS011;10202;48.474;9.138;2022-12-29T09:11:22;3.90;;;1.10;;
20084;SDS011;10202;48.474;9.138;2022-12-29T09:13:49;3.13;;;1.00;;
20084;SDS011;10202;48.474;9.138;2022-12-29T09:16:19;2.15;;;1.20;;
20084;SDS011;10202;48.474;9.138;2022-12-29T09:18:54;4.07;;;1.60;;
20084;SDS011;10202;48.474;9.138;2022-12-29T09:21:19;3.00;;;1.63;;
20084;SDS011;10202;48.474;9.138;2022-12-29T09:23:50;4.72;;;1.65;;
20084;SDS011;10202;48.474;9.138;2022-12-29T09:26:15;8.40;;;1.98;;
20084;SDS011;10202;48.474;9.138;2022-12-29T09:28:46;2.97;;;1.17;;
20084;SDS011;10202;48.474;9.138;2022-12-29T09:31:15;3.53;;;1.42;;
20084;SDS011;10202;48.474;9.138;2022-12-29T09:33:43;3.60;;;1.40;;
20084;SDS011;10202;48.474;9.138;2022-12-29T09:36:08;4.40;;;2.10;;
20084;SDS011;10202;48.474;9.138;2022-12-29T09:38:34;4.63;;;2.00;;
20084;SDS011;10202;48.474;9.138;2022-12-29T09:41:22;1.88;;;1.40;;
20084;SDS011;10202;48.474;9.138;2022-12-29T09:44:03;1.75;;;1.25;;
20084;SDS011;10202;48.474;9.138;2022-12-29T09:46:46;3.88;;;1.38;;
20084;SDS011;10202;48.474;9.138;2022-12-29T09:49:22;3.75;;;1.88;;
20084;SDS011;10202;48.474;9.138;2022-12-29T09:52:18;2.47;;;1.13;;
20084;SDS011;10202;48.474;9.138;2022-12-29T09:57:43;3.30;;;1.58;;
20084;SDS011;10202;48.474;9.138;2022-12-29T10:04:03;1.90;;;1.17;;
20084;SDS011;10202;48.474;9.138;2022-12-29T10:25:34;1.23;;;1.10;;
20084;SDS011;10202;48.474;9.138;2022-12-29T10:28:06;5.85;;;1.48;;
20084;SDS011;10202;48.474;9.138;2022-12-29T10:30:45;1.40;;;1.00;;
20084;SDS011;10202;48.474;9.138;2022-12-29T10:33:35;4.38;;;1.40;;
20084;SDS011;10202;48.474;9.138;2022-12-29T10:36:17;3.22;;;1.60;;
20084;SDS011;10202;48.474;9.138;2022-12-29T10:41:38;1.20;;;1.00;;
20084;SDS011;10202;48.474;9.138;2022-12-29T10:44:18;4.43;;;1.38;;
20084;SDS011;10202;48.474;9.138;2022-12-29T10:47:02;2.53;;;1.40;;
20084;SDS011;10202;48.474;9.138;2022-12-29T10:49:32;2.85;;;1.60;;
20084;SDS011;10202;48.474;9.138;2022-12-29T10:52:07;1.63;;;1.20;;
20084;SDS011;10202;48.474;9.138;2022-12-29T10:54:38;3.17;;;1.30;;
20084;SDS011;10202;48.474;9.138;2022-12-29T10:57:16;3.10;;;0.90;;
20084;SDS011;10202;48.474;9.138;2022-12-29T10:59:52;2.45;;;1.00;;
20084;SDS011;10202;48.474;9.138;2022-12-29T11:02:26;4.18;;;1.33;;
20084;SDS011;10202;48.474;9.138;2022-12-29T11:05:17;3.53;;;1.60;;
20084;SDS011;10202;48.474;9.138;2022-12-29T11:07:51;5.28;;;1.38;;
20084;SDS011;10202;48.474;9.138;2022-12-29T11:13:10;2.17;;;1.35;;
20084;SDS011;10202;48.474;9.138;2022-12-29T11:15:58;1.75;;;1.40;;
20084;SDS011;10202;48.474;9.138;2022-12-29T11:18:34;1.58;;;1.30;;
20084;SDS011;10202;48.474;9.138;2022-12-29T11:21:04;3.20;;;1.13;;
20084;SDS011;10202;48.474;9.138;2022-12-29T11:23:57;2.15;;;1.15;;
20084;SDS011;10202;48.474;9.138;2022-12-29T11:26:29;1.55;;;1.15;;
20084;SDS011;10202;48.474;9.138;2022-12-29T11:31:42;1.13;;;1.02;;
20084;SDS011;10202;48.474;9.138;2022-12-29T11:36:54;4.18;;;2.50;;
20084;SDS011;10202;48.474;9.138;2022-12-29T11:42:46;3.47;;;1.52;;
20084;SDS011;10202;48.474;9.138;2022-12-29T11:45:24;3.58;;;1.75;;
20084;SDS011;10202;48.474;9.138;2022-12-29T11:47:52;4.95;;;1.55;;
20084;SDS011;10202;48.474;9.138;2022-12-29T11:50:30;2.85;;;1.30;;
20084;SDS011;10202;48.474;9.138;2022-12-29T11:53:05;1.33;;;1.23;;
20084;SDS011;10202;48.474;9.138;2022-12-29T11:56:02;3.53;;;1.40;;
20084;SDS011;10202;48.474;9.138;2022-12-29T11:58:32;4.55;;;1.40;;
20084;SDS011;10202;48.474;9.138;2022-12-29T12:01:20;1.40;;;1.20;;
20084;SDS011;10202;48.474;9.138;2022-12-29T12:04:03;2.83;;;1.60;;
20084;SDS011;10202;48.474;9.138;2022-12-29T12:06:39;2.22;;;1.40;;
20084;SDS011;10202;48.474;9.138;2022-12-29T12:09:19;3.03;;;1.48;;
20084;SDS011;10202;48.474;9.138;2022-12-29T12:11:54;3.60;;;1.52;;
20084;SDS011;10202;48.474;9.138;2022-12-29T12:14:25;3.55;;;1.35;;
20084;SDS011;10202;48.474;9.138;2022-12-29T12:17:14;4.38;;;1.33;;
20084;SDS011;10202;48.474;9.138;2022-12-29T12:30:37;5.10;;;1.58;;
20084;SDS011;10202;48.474;9.138;2022-12-29T12:55:10;3.35;;;1.70;;
20084;SDS011;10202;48.474;9.138;2022-12-29T12:58:12;3.42;;;1.85;;
20084;SDS011;10202;48.474;9.138;2022-12-29T13:07:30;2.83;;;2.05;;
20084;SDS011;10202;48.474;9.138;2022-12-29T13:10:59;3.35;;;1.77;;
20084;SDS011;10202;48.474;9.138;2022-12-29T13:22:07;6.70;;;2.63;;
20084;SDS011;10202;48.474;9.138;2022-12-29T13:27:31;6.18;;;2.75;;
20084;SDS011;10202;48.474;9.138;2022-12-29T13:30:17;4.47;;;3.00;;
20084;SDS011;10202;48.474;9.138;2022-12-29T13:38:33;3.17;;;2.35;;
20084;SDS011;10202;48.474;9.138;2022-12-29T13:41:26;5.88;;;2.72;;
20084;SDS011;10202;48.474;9.138;2022-12-29T13:43:58;5.50;;;2.40;;
20084;SDS011;10202;48.474;9.138;2022-12-29T13:46:37;3.65;;;1.88;;
20084;SDS011;10202;48.474;9.138;2022-12-29T13:49:16;3.80;;;1.90;;
20084;SDS011;10202;48.474;9.138;2022-12-29T13:51:51;4.50;;;2.30;;
20084;SDS011;10202;48.474;9.138;2022-12-29T14:00:12;6.60;;;2.58;;
20084;SDS011;10202;48.474;9.138;2022-12-29T14:02:47;7.53;;;2.47;;
20084;SDS011;10202;48.474;9.138;2022-12-29T14:07:56;5.40;;;2.28;;
20084;SDS011;10202;48.474;9.138;2022-12-29T14:10:37;3.53;;;2.10;;
20084;SDS011;10202;48.474;9.138;2022-12-29T14:15:44;3.78;;;1.65;;
20084;SDS011;10202;48.474;9.138;2022-12-29T14:18:20;4.32;;;1.70;;
20084;SDS011;10202;48.474;9.138;2022-12-29T14:26:12;7.93;;;3.05;;
20084;SDS011;10202;48.474;9.138;2022-12-29T14:28:56;5.95;;;2.40;;
20084;SDS011;10202;48.474;9.138;2022-12-29T14:36:52;2.97;;;1.58;;
20084;SDS011;10202;48.474;9.138;2022-12-29T14:58:32;6.25;;;2.90;;
20084;SDS011;10202;48.474;9.138;2022-12-29T15:04:04;3.38;;;2.10;;
20084;SDS011;10202;48.474;9.138;2022-12-29T15:06:42;5.82;;;2.45;;
20084;SDS011;10202;48.474;9.138;2022-12-29T15:14:48;20.05;;;13.68;;
20084;SDS011;10202;48.474;9.138;2022-12-29T15:19:57;29.92;;;16.85;;
20084;SDS011;10202;48.474;9.138;2022-12-29T15:22:30;26.52;;;17.45;;
20084;SDS011;10202;48.474;9.138;2022-12-29T15:25:00;14.60;;;9.02;;
20084;SDS011;10202;48.474;9.138;2022-12-29T15:27:30;17.00;;;10.32;;
20084;SDS011;10202;48.474;9.138;2022-12-29T15:29:59;6.85;;;5.13;;
20084;SDS011;10202;48.474;9.138;2022-12-29T15:32:38;5.95;;;3.50;;
20084;SDS011;10202;48.474;9.138;2022-12-29T15:41:02;8.73;;;4.90;;
20084;SDS011;10202;48.474;9.138;2022-12-29T15:46:34;6.93;;;4.28;;
20084;SDS011;10202;48.474;9.138;2022-12-29T15:49:04;6.75;;;4.43;;
20084;SDS011;10202;48.474;9.138;2022-12-29T15:51:41;4.32;;;2.75;;
20084;SDS011;10202;48.474;9.138;2022-12-29T15:54:16;4.25;;;2.60;;
20084;SDS011;10202;48.474;9.138;2022-12-29T15:56:44;4.22;;;2.88;;
20084;SDS011;10202;48.474;9.138;2022-12-29T15:59:29;4.30;;;2.47;;
20084;SDS011;10202;48.474;9.138;2022-12-29T16:02:01;6.82;;;4.00;;
20084;SDS011;10202;48.474;9.138;2022-12-29T16:04:28;8.23;;;4.15;;
20084;SDS011;10202;48.474;9.138;2022-12-29T16:07:02;4.28;;;2.90;;
20084;SDS011;10202;48.474;9.138;2022-12-29T16:09:48;1.83;;;1.40;;
20084;SDS011;10202;48.474;9.138;2022-12-29T16:12:33;2.95;;;2.05;;
20084;SDS011;10202;48.474;9.138;2022-12-29T16:15:02;5.85;;;3.42;;
20084;SDS011;10202;48.474;9.138;2022-12-29T16:17:44;8.88;;;3.97;;
20084;SDS011;10202;48.474;9.138;2022-12-29T16:20:24;3.80;;;2.45;;
20084;SDS011;10202;48.474;9.138;2022-12-29T16:22:57;3.53;;;2.00;;
20084;SDS011;10202;48.474;9.138;2022-12-29T16:25:24;5.05;;;2.95;;
20084;SDS011;10202;48.474;9.138;2022-12-29T16:27:59;22.35;;;16.17;;
20084;SDS011;10202;48.474;9.138;2022-12-29T16:30:30;5.45;;;4.45;;
20084;SDS011;10202;48.474;9.138;2022-12-29T16:33:01;6.22;;;2.50;;
20084;SDS011;10202;48.474;9.138;2022-12-29T16:35:44;12.88;;;5.13;;
20084;SDS011;10202;48.474;9.138;2022-12-29T16:38:19;2.30;;;2.00;;
20084;SDS011;10202;48.474;9.138;2022-12-29T16:40:54;3.72;;;2.08;;
20084;SDS011;10202;48.474;9.138;2022-12-29T16:48:28;3.30;;;1.80;;
20084;SDS011;10202;48.474;9.138;2022-12-29T16:53:35;2.08;;;1.67;;
20084;SDS011;10202;48.474;9.138;2022-12-29T16:56:12;6.20;;;2.33;;
20084;SDS011;10202;48.474;9.138;2022-12-29T16:58:48;2.85;;;1.67;;
20084;SDS011;10202;48.474;9.138;2022-12-29T17:01:19;4.75;;;2.75;;
20084;SDS011;10202;48.474;9.138;2022-12-29T17:03:49;8.18;;;5.95;;
20084;SDS011;10202;48.474;9.138;2022-12-29T17:06:20;6.85;;;3.53;;
20084;SDS011;10202;48.474;9.138;2022-12-29T17:08:54;5.05;;;3.00;;
20084;SDS011;10202;48.474;9.138;2022-12-29T17:11:23;4.25;;;2.40;;
20084;SDS011;10202;48.474;9.138;2022-12-29T17:22:44;2.70;;;2.42;;
20084;SDS011;10202;48.474;9.138;2022-12-29T17:25:11;4.07;;;2.95;;
20084;SDS011;10202;48.474;9.138;2022-12-29T17:27:43;5.95;;;4.00;;
20084;SDS011;10202;48.474;9.138;2022-12-29T17:30:11;7.22;;;4.10;;
20084;SDS011;10202;48.474;9.138;2022-12-29T17:32:43;6.47;;;3.15;;
20084;SDS011;10202;48.474;9.138;2022-12-29T17:35:17;5.05;;;3.55;;
20084;SDS011;10202;48.474;9.138;2022-12-29T17:37:47;4.60;;;3.17;;
20084;SDS011;10202;48.474;9.138;2022-12-29T17:40:17;5.55;;;2.55;;
20084;SDS011;10202;48.474;9.138;2022-12-29T17:42:51;4.50;;;2.78;;
20084;SDS011;10202;48.474;9.138;2022-12-29T17:45:25;4.15;;;2.90;;
20084;SDS011;10202;48.474;9.138;2022-12-29T17:47:54;4.97;;;3.60;;
20084;SDS011;10202;48.474;9.138;2022-12-29T17:50:26;4.50;;;3.42;;
20084;SDS011;10202;48.474;9.138;2022-12-29T17:52:59;5.00;;;2.72;;
20084;SDS011;10202;48.474;9.138;2022-12-29T17:55:32;3.20;;;2.72;;
20084;SDS011;10202;48.474;9.138;2022-12-29T17:57:58;4.32;;;3.00;;
20084;SDS011;10202;48.474;9.138;2022-12-29T18:00:29;3.60;;;2.70;;
20084;SDS011;10202;48.474;9.138;2022-12-29T18:02:59;4.15;;;2.72;;
20084;SDS011;10202;48.474;9.138;2022-12-29T18:05:29;3.53;;;2.65;;
20084;SDS011;10202;48.474;9.138;2022-12-29T18:08:00;5.85;;;2.45;;
20084;SDS011;10202;48.474;9.138;2022-12-29T18:10:28;3.15;;;2.45;;
20084;SDS011;10202;48.474;9.138;2022-12-29T18:12:58;3.25;;;2.50;;
20084;SDS011;10202;48.474;9.138;2022-12-29T18:15:29;5.47;;;4.03;;
20084;SDS011;10202;48.474;9.138;2022-12-29T18:18:10;10.05;;;5.70;;
20084;SDS011;10202;48.474;9.138;2022-12-29T18:20:46;5.72;;;3.78;;
20084;SDS011;10202;48.474;9.138;2022-12-29T18:23:24;6.85;;;4.45;;
20084;SDS011;10202;48.474;9.138;2022-12-29T18:28:27;17.10;;;8.27;;
20084;SDS011;10202;48.474;9.138;2022-12-29T18:30:54;17.85;;;9.27;;
20084;SDS011;10202;48.474;9.138;2022-12-29T18:33:24;21.52;;;10.35;;
20084;SDS011;10202;48.474;9.138;2022-12-29T18:38:29;13.55;;;6.35;;
20084;SDS011;10202;48.474;9.138;2022-12-29T18:40:56;7.15;;;4.63;;
20084;SDS011;10202;48.474;9.138;2022-12-29T18:43:25;5.32;;;3.83;;
20084;SDS011;10202;48.474;9.138;2022-12-29T18:45:55;6.38;;;4.15;;
20084;SDS011;10202;48.474;9.138;2022-12-29T18:48:23;5.57;;;3.78;;
20084;SDS011;10202;48.474;9.138;2022-12-29T18:50:51;6.43;;;2.90;;
20084;SDS011;10202;48.474;9.138;2022-12-29T18:53:18;7.68;;;3.92;;
20084;SDS011;10202;48.474;9.138;2022-12-29T18:55:51;5.97;;;2.92;;
20084;SDS011;10202;48.474;9.138;2022-12-29T18:58:20;3.72;;;2.40;;
20084;SDS011;10202;48.474;9.138;2022-12-29T19:00:48;7.30;;;4.15;;
20084;SDS011;10202;48.474;9.138;2022-12-29T19:03:16;4.90;;;3.45;;